KMOB/MOB METAR and TAF weather

Enter ICAO airport designator
Station Type Date Time Source
KMOB METAR 2022/11/30 17:56 UTC NOAA

KMOB 301756Z 01016KT 10SM SCT039 BKN250 22/12 A3017 RMK AO2 SLP213 60012 T02170117 10233 20200 50017


Station Type Date Time Source
KMOB Decoded METAR 2022/11/30 17:56 UTC NOAA

MOBILE REGIONAL AIRPORT, AL, United States (KMOB) 30-41N 88-14W 67M
Nov 30, 2022 - 12:56 PM EST / 2022.11.30 1756 UTC
Wind: from the N (010 degrees) at 18 MPH (16 KT):0
Visibility: 10 mile(s):0
Sky conditions: mostly cloudy
Temperature: 71.1 F (21.7 C)
Dew Point: 53.1 F (11.7 C)
Relative Humidity: 52%
Pressure (altimeter): 30.17 in. Hg (1021 hPa)
Pressure tendency: 0.05 inches (1.7 hPa) higher than three hours ago
ob: KMOB 301756Z 01016KT 10SM SCT039 BKN250 22/12 A3017 RMK AO2 SLP213 60012 T02170117 10233 20200 50017
cycle: 18

Station Type Date Time Source
KMOB TAF 2022/11/30 18:36 UTC NOAA

TAF KMOB 301735Z 3018/0118 35014G22KT P6SM SCT020 SCT050
FM301900 35018G26KT P6SM SKC
FM010100 36012KT P6SM SKC

Example: see airport list